Time;durP1;ratioP1;P1;durP2;ratioP2;P2;SDS_P1;SDS_P2;PMS_P1;PMS_P2;Temp;Humidity;BMP_temperature;BMP_pressure;BME280_temperature;BME280_humidity;BME280_pressure;Samples;Min_cycle;Max_cycle;Signal;HPM_P1;HPM_P2
2021/01/26 00:01:13;;;;;;;8.07;2.63;;;15.50;52.90;;;;;;5051238;28;20064;-73
2021/01/26 00:03:38;;;;;;;6.22;2.28;;;15.50;52.90;;;;;;5050756;28;20056;-72
2021/01/26 00:06:04;;;;;;;5.88;2.17;;;15.50;52.90;;;;;;5050878;28;20462;-73
2021/01/26 00:08:30;;;;;;;6.50;2.40;;;15.50;52.90;;;;;;5038483;28;20034;-72
2021/01/26 00:10:57;;;;;;;7.25;2.28;;;15.40;52.90;;;;;;5030351;28;20116;-72
2021/01/26 00:13:22;;;;;;;4.88;2.10;;;15.40;52.90;;;;;;5029753;28;20026;-72
2021/01/26 00:15:48;;;;;;;6.85;2.33;;;15.40;52.90;;;;;;5043925;28;20029;-73
2021/01/26 00:18:14;;;;;;;6.15;2.40;;;15.30;52.90;;;;;;5050953;28;20027;-72
2021/01/26 00:20:39;;;;;;;6.68;2.58;;;15.30;52.90;;;;;;5049469;28;20029;-73
2021/01/26 00:23:05;;;;;;;5.78;2.55;;;15.30;52.90;;;;;;5033550;28;20033;-72
2021/01/26 00:25:34;;;;;;;6.50;2.53;;;15.30;52.90;;;;;;5033243;28;20033;-72
2021/01/26 00:28:00;;;;;;;5.88;2.17;;;15.30;52.90;;;;;;5035068;28;20017;-72
2021/01/26 00:30:29;;;;;;;4.32;2.00;;;15.20;52.80;;;;;;5049554;28;20045;-72
2021/01/26 00:32:55;;;;;;;5.72;2.42;;;15.20;52.80;;;;;;5054595;28;20021;-73
2021/01/26 00:35:23;;;;;;;7.90;2.30;;;15.20;52.90;;;;;;5054900;28;20032;-72
2021/01/26 00:37:49;;;;;;;5.50;2.38;;;15.20;52.90;;;;;;5054442;28;20126;-73
2021/01/26 00:40:16;;;;;;;6.35;2.28;;;15.10;52.80;;;;;;5054797;28;20473;-73
2021/01/26 00:42:41;;;;;;;6.68;1.98;;;15.10;52.80;;;;;;5053119;28;20021;-73
2021/01/26 00:45:09;;;;;;;5.07;1.88;;;15.10;52.90;;;;;;5054749;28;20553;-73
2021/01/26 00:47:34;;;;;;;5.03;2.08;;;15.10;52.90;;;;;;5054415;28;20017;-73
2021/01/26 00:50:00;;;;;;;5.40;2.13;;;15.00;53.40;;;;;;5050344;28;20378;-73
2021/01/26 00:52:26;;;;;;;6.00;1.90;;;15.00;52.80;;;;;;5033168;28;20079;-73
2021/01/26 00:54:51;;;;;;;4.38;1.90;;;15.00;52.80;;;;;;5034115;28;20482;-73
2021/01/26 00:57:19;;;;;;;6.05;1.85;;;15.00;52.80;;;;;;5034222;28;20025;-73
2021/01/26 00:59:49;;;;;;;6.70;2.20;;;15.00;52.80;;;;;;5044140;28;20044;-72
2021/01/26 01:02:15;;;;;;;7.18;1.98;;;14.90;52.80;;;;;;5044316;28;20120;-72
2021/01/26 01:04:42;;;;;;;7.13;2.50;;;14.90;52.80;;;;;;5054104;28;20043;-73
2021/01/26 01:07:07;;;;;;;6.75;2.20;;;14.90;52.80;;;;;;5054126;28;20020;-73
2021/01/26 01:09:33;;;;;;;6.43;1.90;;;14.90;53.40;;;;;;5050282;28;20049;-73
2021/01/26 01:11:58;;;;;;;5.38;1.95;;;14.80;52.80;;;;;;5033989;28;20083;-72
2021/01/26 01:14:26;;;;;;;6.18;1.83;;;14.80;52.80;;;;;;5034433;28;20030;-72
2021/01/26 01:16:52;;;;;;;7.13;2.33;;;14.80;52.80;;;;;;5033883;28;20583;-72
2021/01/26 01:19:18;;;;;;;5.22;2.30;;;14.80;52.80;;;;;;5034041;28;20048;-73
2021/01/26 01:21:43;;;;;;;5.10;2.10;;;14.80;52.80;;;;;;5033953;28;20048;-72
2021/01/26 01:24:09;;;;;;;4.65;1.92;;;14.80;52.80;;;;;;5034069;28;20025;-72
2021/01/26 01:26:35;;;;;;;6.15;2.00;;;14.70;52.80;;;;;;5033601;28;20028;-72
2021/01/26 01:29:01;;;;;;;5.80;2.30;;;14.70;52.80;;;;;;5038807;28;20646;-72
2021/01/26 01:31:26;;;;;;;4.63;1.92;;;14.70;52.80;;;;;;5053719;28;20036;-72
2021/01/26 01:33:52;;;;;;;6.18;2.25;;;14.70;52.80;;;;;;5053401;28;20123;-72
2021/01/26 01:36:18;;;;;;;4.53;1.67;;;14.60;52.80;;;;;;5039852;28;20028;-72
2021/01/26 01:38:44;;;;;;;7.97;2.15;;;14.60;52.80;;;;;;5033486;28;20068;-73
2021/01/26 01:41:10;;;;;;;6.28;1.77;;;14.60;52.80;;;;;;5033497;28;20062;-72
2021/01/26 01:43:36;;;;;;;6.20;2.00;;;14.60;52.80;;;;;;5033551;28;20021;-72
2021/01/26 01:46:06;;;;;;;4.88;1.83;;;14.60;52.80;;;;;;5033809;28;20448;-72
2021/01/26 01:48:35;;;;;;;4.85;2.00;;;14.60;52.80;;;;;;5033203;28;20034;-72
2021/01/26 01:51:14;;;;;;;5.95;1.83;;;14.50;52.70;;;;;;5033560;28;20490;-72
2021/01/26 01:53:44;;;;;;;4.65;1.83;;;14.50;52.80;;;;;;5031744;28;20466;-73
2021/01/26 01:56:24;;;;;;;6.45;1.90;;;14.50;52.80;;;;;;5033374;28;20033;-72
2021/01/26 01:58:56;;;;;;;4.68;1.75;;;14.50;52.80;;;;;;5039109;28;20028;-72
2021/01/26 02:01:26;;;;;;;4.30;1.70;;;14.50;52.80;;;;;;5053100;28;20114;-73
2021/01/26 02:03:57;;;;;;;4.60;1.73;;;14.40;52.80;;;;;;5052602;28;20627;-73
2021/01/26 02:06:25;;;;;;;5.07;1.58;;;14.40;52.80;;;;;;5053169;28;20061;-72
2021/01/26 02:09:07;;;;;;;5.03;1.80;;;14.40;52.80;;;;;;5032752;28;20022;-72
2021/01/26 02:11:33;;;;;;;7.10;2.28;;;14.40;52.80;;;;;;5030561;28;20034;-72
2021/01/26 02:13:59;;;;;;;3.60;1.67;;;14.40;52.80;;;;;;5033407;28;20026;-73
2021/01/26 02:16:49;;;;;;;5.63;1.98;;;14.40;52.80;;;;;;5032749;28;20049;-73
2021/01/26 02:19:33;;;;;;;4.50;1.50;;;14.40;53.30;;;;;;5032899;28;20108;-73
2021/01/26 02:22:29;;;;;;;4.32;1.65;;;14.30;52.80;;;;;;5033317;28;20034;-72
2021/01/26 02:25:42;;;;;;;4.38;2.03;;;14.30;52.80;;;;;;5032097;28;20481;-73
2021/01/26 02:28:14;;;;;;;6.65;2.05;;;14.30;52.80;;;;;;5032951;28;20041;-72
2021/01/26 02:30:53;;;;;;;5.75;1.90;;;14.30;52.80;;;;;;5052281;28;20037;-72
2021/01/26 02:33:55;;;;;;;3.63;1.42;;;14.30;52.80;;;;;;5050758;28;20025;-73
2021/01/26 02:36:33;;;;;;;6.15;1.73;;;14.20;52.80;;;;;;5051160;28;20052;-73
2021/01/26 02:39:14;;;;;;;4.47;1.80;;;14.20;52.80;;;;;;5032366;28;20041;-72
2021/01/26 02:42:01;;;;;;;5.53;1.95;;;14.20;52.80;;;;;;5032263;28;20045;-72
2021/01/26 02:44:54;;;;;;;3.88;1.75;;;14.20;52.80;;;;;;5032884;28;20022;-73
2021/01/26 02:47:42;;;;;;;5.30;1.85;;;14.20;52.80;;;;;;5032093;28;20029;-72
2021/01/26 02:50:33;;;;;;;4.10;1.40;;;14.20;52.80;;;;;;5031019;28;20048;-72
2021/01/26 02:53:11;;;;;;;5.47;1.60;;;14.20;52.80;;;;;;5032654;28;20061;-72
2021/01/26 02:56:02;;;;;;;4.25;1.48;;;14.10;52.80;;;;;;5031919;28;20014;-72
2021/01/26 02:58:38;;;;;;;3.50;1.35;;;14.10;52.80;;;;;;5037768;28;20029;-73
2021/01/26 03:01:05;;;;;;;6.95;1.88;;;14.10;52.80;;;;;;5052219;28;20465;-73
2021/01/26 03:03:50;;;;;;;4.82;1.63;;;14.10;52.80;;;;;;5052172;28;20028;-72
2021/01/26 03:06:23;;;;;;;3.72;1.27;;;14.10;52.80;;;;;;5052080;28;20027;-72
2021/01/26 03:08:49;;;;;;;5.60;1.77;;;14.10;52.80;;;;;;5049718;28;20550;-72
2021/01/26 03:11:39;;;;;;;6.78;2.20;;;14.10;52.90;;;;;;5031928;28;20029;-72
2021/01/26 03:14:13;;;;;;;5.05;1.50;;;14.00;52.80;;;;;;5004773;28;20042;-72
2021/01/26 03:16:40;;;;;;;2.70;1.20;;;14.10;52.90;;;;;;5031789;28;20486;-72
2021/01/26 03:19:18;;;;;;;4.07;1.50;;;14.00;52.90;;;;;;5031543;28;20021;-72
2021/01/26 03:21:49;;;;;;;4.57;1.58;;;14.10;52.90;;;;;;5030124;28;20030;-72
2021/01/26 03:24:23;;;;;;;5.03;1.45;;;14.00;52.90;;;;;;5031674;28;20101;-72
2021/01/26 03:26:49;;;;;;;4.85;1.30;;;14.00;52.90;;;;;;5029906;28;20053;-72
2021/01/26 03:29:21;;;;;;;4.10;1.52;;;14.00;52.90;;;;;;5034870;28;20041;-72
2021/01/26 03:31:51;;;;;;;3.03;1.30;;;14.00;52.90;;;;;;5029795;28;20061;-73
2021/01/26 03:34:16;;;;;;;5.05;1.77;;;14.00;52.90;;;;;;5031580;28;20025;-72
2021/01/26 03:36:42;;;;;;;4.30;1.33;;;14.00;52.90;;;;;;5030763;28;20092;-73
2021/01/26 03:39:08;;;;;;;7.80;1.48;;;14.00;53.50;;;;;;5031600;28;20486;-72
2021/01/26 03:41:34;;;;;;;3.15;1.48;;;13.90;52.90;;;;;;5031338;28;20045;-72
2021/01/26 03:44:00;;;;;;;4.75;1.33;;;13.90;53.00;;;;;;5031422;28;20422;-72
2021/01/26 03:46:48;;;;;;;2.58;1.25;;;13.90;53.00;;;;;;5031428;28;20052;-72
2021/01/26 03:49:25;;;;;;;4.88;1.40;;;13.90;53.00;;;;;;5031218;28;20021;-72
2021/01/26 03:52:19;;;;;;;3.17;1.20;;;13.90;53.00;;;;;;5031142;28;20030;-72
2021/01/26 03:54:55;;;;;;;3.63;1.40;;;13.90;53.00;;;;;;5031196;28;20100;-72
2021/01/26 03:57:29;;;;;;;4.05;1.48;;;13.90;53.00;;;;;;5031195;28;20078;-72
2021/01/26 04:00:11;;;;;;;6.07;1.65;;;13.90;53.00;;;;;;5040545;28;20535;-72
2021/01/26 04:02:59;;;;;;;5.03;1.75;;;13.90;53.60;;;;;;5031006;28;20018;-72
2021/01/26 04:05:37;;;;;;;4.47;1.67;;;13.90;53.00;;;;;;5031305;28;20072;-72
2021/01/26 04:08:18;;;;;;;3.90;1.20;;;13.80;53.00;;;;;;5031063;28;20109;-72
2021/01/26 04:11:12;;;;;;;5.07;1.58;;;13.90;53.00;;;;;;5030946;28;20034;-72
2021/01/26 04:14:03;;;;;;;3.95;1.38;;;13.80;53.00;;;;;;5031007;28;20018;-72
2021/01/26 04:16:35;;;;;;;5.80;1.67;;;13.90;53.00;;;;;;5031367;28;20052;-72
2021/01/26 04:19:04;;;;;;;3.72;1.05;;;13.80;53.00;;;;;;5031174;28;20022;-72
2021/01/26 04:21:32;;;;;;;5.43;1.50;;;13.80;53.10;;;;;;5031311;28;20453;-72
2021/01/26 04:23:59;;;;;;;2.22;1.17;;;13.80;53.10;;;;;;5031482;28;20431;-72
2021/01/26 04:26:26;;;;;;;3.70;1.48;;;13.80;53.10;;;;;;5031113;28;20025;-72
2021/01/26 04:28:52;;;;;;;4.95;1.45;;;13.80;53.10;;;;;;5040547;28;20166;-72
2021/01/26 04:31:19;;;;;;;5.90;1.63;;;13.80;53.10;;;;;;5050188;28;20100;-73
2021/01/26 04:33:46;;;;;;;2.92;1.33;;;13.80;53.10;;;;;;5050205;28;20095;-73
2021/01/26 04:36:15;;;;;;;3.15;1.38;;;13.70;53.60;;;;;;5037909;28;20029;-72
2021/01/26 04:38:41;;;;;;;6.15;1.23;;;13.70;53.10;;;;;;5029087;28;20026;-72
2021/01/26 04:41:31;;;;;;;6.03;1.35;;;13.70;53.00;;;;;;5030893;28;20041;-73
2021/01/26 04:44:11;;;;;;;6.28;1.75;;;13.70;53.00;;;;;;5030418;28;20112;-72
2021/01/26 04:46:41;;;;;;;4.93;1.92;;;13.70;53.00;;;;;;5030390;28;20045;-72
2021/01/26 04:49:19;;;;;;;5.57;1.90;;;13.70;53.00;;;;;;5030660;28;20030;-72
2021/01/26 04:51:54;;;;;;;3.28;1.17;;;13.70;53.10;;;;;;5030389;28;20072;-72
2021/01/26 04:54:36;;;;;;;4.93;1.37;;;13.70;53.10;;;;;;5030853;28;20037;-72
2021/01/26 04:57:25;;;;;;;2.78;1.20;;;13.60;53.00;;;;;;5030280;28;20036;-72
2021/01/26 05:00:21;;;;;;;3.40;1.35;;;13.70;53.10;;;;;;5010704;28;20402;-73
2021/01/26 05:03:09;;;;;;;4.50;1.40;;;13.60;53.00;;;;;;5009156;28;20033;-73
2021/01/26 05:05:38;;;;;;;3.53;1.20;;;13.60;53.10;;;;;;5010685;28;20026;-72
2021/01/26 05:08:13;;;;;;;3.28;1.50;;;13.70;53.10;;;;;;5010811;28;20052;-72
2021/01/26 05:10:48;;;;;;;3.22;1.17;;;13.60;53.10;;;;;;5011069;28;20048;-72
2021/01/26 05:13:21;;;;;;;3.65;1.65;;;13.60;53.10;;;;;;5014315;28;20505;-73
2021/01/26 05:15:54;;;;;;;3.42;1.35;;;13.60;53.10;;;;;;5014094;28;20038;-72
2021/01/26 05:18:35;;;;;;;3.10;1.25;;;13.60;53.10;;;;;;5014427;28;20032;-72
2021/01/26 05:21:07;;;;;;;4.43;1.20;;;13.60;53.10;;;;;;5014539;28;20537;-72
2021/01/26 05:23:38;;;;;;;3.42;1.35;;;13.60;53.10;;;;;;5013910;28;20022;-72
2021/01/26 05:26:08;;;;;;;2.97;1.33;;;13.60;53.10;;;;;;5012886;28;20033;-72
2021/01/26 05:28:35;;;;;;;3.08;1.50;;;13.50;53.10;;;;;;5034734;28;20071;-73
2021/01/26 05:31:07;;;;;;;3.53;1.20;;;13.60;53.20;;;;;;5054035;28;20037;-73
2021/01/26 05:33:35;;;;;;;4.43;1.45;;;13.50;53.10;;;;;;5053444;28;20017;-72
2021/01/26 05:36:02;;;;;;;2.67;1.10;;;13.60;53.70;;;;;;5054087;28;20115;-72
2021/01/26 05:38:28;;;;;;;3.63;1.10;;;13.50;53.10;;;;;;5053679;28;20477;-72
2021/01/26 05:41:01;;;;;;;3.30;1.05;;;13.50;53.10;;;;;;5053398;28;20158;-72
2021/01/26 05:43:30;;;;;;;2.95;1.30;;;13.50;53.10;;;;;;5053822;28;20092;-72
2021/01/26 05:46:02;;;;;;;4.03;1.40;;;13.50;53.10;;;;;;5052952;28;20020;-72
2021/01/26 05:48:28;;;;;;;4.32;1.25;;;13.50;53.10;;;;;;5053544;28;20033;-72
2021/01/26 05:51:14;;;;;;;2.97;1.17;;;13.50;53.10;;;;;;5053286;28;20070;-72
2021/01/26 05:53:40;;;;;;;;;;;13.40;53.10;;;;;;5013824;28;20026;-73
2021/01/26 05:56:11;;;;;;;2.80;1.40;;;13.50;53.20;;;;;;5012373;28;19958;-73
2021/01/26 05:58:39;;;;;;;5.25;1.63;;;13.50;53.10;;;;;;5039166;28;20021;-73
2021/01/26 06:01:22;;;;;;;3.65;1.25;;;13.50;53.10;;;;;;5041374;28;20040;-73
2021/01/26 06:04:17;;;;;;;4.63;1.60;;;13.40;53.10;;;;;;5033135;28;20101;-72
2021/01/26 06:06:47;;;;;;;2.97;1.00;;;13.40;53.10;;;;;;5032887;28;20402;-73
2021/01/26 06:09:25;;;;;;;5.25;1.65;;;13.40;53.10;;;;;;5033208;28;20120;-73
2021/01/26 06:12:07;;;;;;;3.72;1.15;;;13.40;53.20;;;;;;5032621;28;20030;-73
2021/01/26 06:14:33;;;;;;;3.63;1.27;;;13.40;53.20;;;;;;5032817;28;20362;-72
2021/01/26 06:17:12;;;;;;;2.28;0.98;;;13.40;53.20;;;;;;5033199;28;20029;-73
2021/01/26 06:19:39;;;;;;;3.60;1.10;;;13.40;53.10;;;;;;5032628;28;20022;-72
2021/01/26 06:22:05;;;;;;;4.05;1.20;;;13.40;53.20;;;;;;5032496;28;20099;-73
2021/01/26 06:24:35;;;;;;;2.03;0.95;;;13.30;53.10;;;;;;5032506;28;20498;-72
2021/01/26 06:27:22;;;;;;;3.83;1.20;;;13.30;53.10;;;;;;5033339;28;20025;-72
2021/01/26 06:30:03;;;;;;;5.07;1.00;;;13.30;53.10;;;;;;5052367;28;20032;-73
2021/01/26 06:32:39;;;;;;;2.67;1.15;;;13.30;53.10;;;;;;5052797;28;20035;-73
2021/01/26 06:35:05;;;;;;;2.50;1.10;;;13.30;53.20;;;;;;5042102;28;20028;-72
2021/01/26 06:37:38;;;;;;;4.32;1.65;;;13.30;53.10;;;;;;5032855;28;20104;-72
2021/01/26 06:40:22;;;;;;;3.30;1.20;;;13.30;53.20;;;;;;5032607;28;20101;-72
2021/01/26 06:43:01;;;;;;;3.75;1.05;;;13.30;53.10;;;;;;5032327;28;20021;-72
2021/01/26 06:45:40;;;;;;;4.78;1.23;;;13.30;53.20;;;;;;5032397;28;20083;-72
2021/01/26 06:48:24;;;;;;;3.10;1.27;;;13.30;53.20;;;;;;5032351;28;20024;-72
2021/01/26 06:51:09;;;;;;;2.92;1.05;;;13.30;53.20;;;;;;5031976;28;20387;-72
2021/01/26 06:53:53;;;;;;;2.88;1.38;;;13.30;53.20;;;;;;5031680;28;20087;-73
2021/01/26 06:57:01;;;;;;;3.20;1.20;;;13.20;53.10;;;;;;5032187;28;20064;-72
2021/01/26 06:59:53;;;;;;;3.65;1.00;;;13.20;53.20;;;;;;5030496;28;20026;-73
2021/01/26 07:02:48;;;;;;;4.28;1.38;;;13.20;53.20;;;;;;5030690;28;20049;-72
2021/01/26 07:05:32;;;;;;;5.88;1.65;;;13.30;53.20;;;;;;5032078;28;20021;-71
2021/01/26 07:08:35;;;;;;;2.05;0.93;;;13.20;53.20;;;;;;5032245;28;20021;-72
2021/01/26 07:11:18;;;;;;;2.30;1.30;;;13.20;53.10;;;;;;5032301;28;20563;-73
2021/01/26 07:13:54;;;;;;;4.75;1.30;;;13.20;53.10;;;;;;5031070;28;20097;-72
2021/01/26 07:16:29;;;;;;;3.67;1.40;;;13.20;53.10;;;;;;5031716;28;20029;-71
2021/01/26 07:19:09;;;;;;;1.77;0.90;;;13.20;53.10;;;;;;5031572;28;20100;-72
2021/01/26 07:22:12;;;;;;;2.08;0.80;;;13.30;53.10;;;;;;5031610;28;20509;-71
2021/01/26 07:24:56;;;;;;;2.80;1.15;;;13.40;53.00;;;;;;5031402;28;20029;-72
2021/01/26 07:27:24;;;;;;;3.72;0.90;;;13.60;53.10;;;;;;5031716;28;20397;-71
2021/01/26 07:29:50;;;;;;;3.35;1.20;;;13.70;53.10;;;;;;5031204;28;20038;-70
2021/01/26 07:32:26;;;;;;;3.60;1.00;;;13.90;53.20;;;;;;5031341;28;20496;-71
2021/01/26 07:35:07;;;;;;;3.05;1.20;;;14.00;53.30;;;;;;5031146;28;20029;-71
2021/01/26 07:37:39;;;;;;;7.80;2.08;;;14.20;53.40;;;;;;5030701;28;20108;-72
2021/01/26 07:40:19;;;;;;;4.57;2.20;;;14.40;53.60;;;;;;5031303;28;20036;-71
2021/01/26 07:42:55;;;;;;;4.03;1.85;;;14.70;54.10;;;;;;5038480;28;20025;-71
2021/01/26 07:45:36;;;;;;;4.82;1.75;;;14.80;54.30;;;;;;5051027;28;20477;-72
2021/01/26 07:48:42;;;;;;;3.75;1.63;;;15.00;54.20;;;;;;5051280;28;20032;-72
2021/01/26 07:51:23;;;;;;;5.03;1.65;;;15.20;54.40;;;;;;4979072;28;20059;-70
2021/01/26 07:54:27;;;;;;;5.18;1.90;;;15.40;54.10;;;;;;5030673;28;20025;-72
2021/01/26 07:56:57;;;;;;;3.95;1.30;;;15.30;53.90;;;;;;5024053;28;20409;-71
2021/01/26 07:59:27;;;;;;;6.18;1.42;;;15.40;54.70;;;;;;5029347;28;20021;-71
2021/01/26 08:02:03;;;;;;;3.22;1.05;;;15.60;54.90;;;;;;5030889;28;20104;-71
2021/01/26 08:04:37;;;;;;;4.20;1.27;;;15.70;54.60;;;;;;5031478;28;20029;-71
2021/01/26 08:07:03;;;;;;;2.15;1.10;;;15.90;54.40;;;;;;5031053;28;20017;-71
2021/01/26 08:09:47;;;;;;;5.05;1.60;;;15.90;54.10;;;;;;5030517;28;20040;-71
2021/01/26 08:12:17;;;;;;;4.35;1.58;;;16.10;53.80;;;;;;5030709;28;20028;-72
2021/01/26 08:14:47;;;;;;;2.28;1.00;;;16.20;54.00;;;;;;5030223;28;20493;-71
2021/01/26 08:17:16;;;;;;;3.05;1.40;;;16.20;53.50;;;;;;5030571;28;20025;-70
2021/01/26 08:19:45;;;;;;;4.15;1.13;;;16.20;53.40;;;;;;5030858;28;20033;-70
2021/01/26 08:22:21;;;;;;;5.30;1.75;;;16.30;53.00;;;;;;5031096;28;20057;-71
2021/01/26 08:24:57;;;;;;;5.10;1.40;;;16.40;52.80;;;;;;5030753;28;20495;-70
2021/01/26 08:27:39;;;;;;;3.22;1.38;;;16.50;52.60;;;;;;5032054;28;20107;-70
2021/01/26 08:30:09;;;;;;;4.97;1.30;;;16.50;52.40;;;;;;5042186;28;20036;-74
2021/01/26 08:32:34;;;;;;;3.20;1.17;;;16.60;52.50;;;;;;5045857;28;20103;-73
2021/01/26 08:35:02;;;;;;;4.93;1.85;;;16.60;52.50;;;;;;5030696;28;20497;-72
2021/01/26 08:37:42;;;;;;;3.60;1.50;;;16.50;52.60;;;;;;5031179;28;20034;-72
2021/01/26 08:40:17;;;;;;;5.05;1.70;;;16.50;52.10;;;;;;5030984;28;20440;-72
2021/01/26 08:42:43;;;;;;;2.57;1.40;;;16.50;52.00;;;;;;5030748;28;20075;-71
2021/01/26 08:45:10;;;;;;;3.17;1.27;;;16.50;51.80;;;;;;5030836;28;20280;-72
2021/01/26 08:47:53;;;;;;;3.58;1.20;;;16.50;51.70;;;;;;5033804;28;20018;-72
2021/01/26 08:50:33;;;;;;;3.72;1.35;;;16.50;51.70;;;;;;5034187;28;20037;-72
2021/01/26 08:53:23;;;;;;;3.85;1.45;;;16.50;51.70;;;;;;5034262;28;20104;-71
2021/01/26 08:55:53;;;;;;;4.50;1.58;;;16.40;51.60;;;;;;5034424;28;20084;-72
2021/01/26 08:58:46;;;;;;;4.32;1.50;;;16.30;51.50;;;;;;5046805;28;20025;-72
2021/01/26 09:01:24;;;;;;;3.65;1.25;;;16.40;51.60;;;;;;5054425;28;20027;-73
2021/01/26 09:03:54;;;;;;;4.85;1.35;;;16.30;51.40;;;;;;5054196;28;20031;-73
2021/01/26 09:06:38;;;;;;;3.92;1.40;;;16.30;51.40;;;;;;5054283;28;20021;-74
2021/01/26 09:09:08;;;;;;;3.08;1.20;;;16.20;51.40;;;;;;5053922;28;20040;-72
2021/01/26 09:11:45;;;;;;;4.82;1.27;;;16.20;51.20;;;;;;5054049;28;20048;-72
2021/01/26 09:14:19;;;;;;;4.30;1.38;;;16.20;51.20;;;;;;5054301;28;20071;-72
2021/01/26 09:16:45;;;;;;;4.20;1.45;;;16.10;51.30;;;;;;5054013;28;20040;-74
2021/01/26 09:19:21;;;;;;;3.33;1.60;;;16.10;51.30;;;;;;5053720;28;20105;-75
2021/01/26 09:21:46;;;;;;;3.80;1.42;;;16.10;51.20;;;;;;5053967;28;20100;-75
2021/01/26 09:24:20;;;;;;;3.20;1.55;;;16.00;51.20;;;;;;5052688;28;20057;-74
2021/01/26 09:26:46;;;;;;;3.50;1.60;;;16.00;51.20;;;;;;5051919;28;20546;-72
2021/01/26 09:29:27;;;;;;;3.53;1.40;;;15.90;51.20;;;;;;5053262;28;20033;-76
2021/01/26 09:31:55;;;;;;;5.70;1.42;;;15.90;51.00;;;;;;5051946;28;20048;-74
2021/01/26 09:34:26;;;;;;;3.33;1.48;;;15.90;51.10;;;;;;5049090;28;20021;-73
2021/01/26 09:37:05;;;;;;;3.78;1.92;;;15.80;51.60;;;;;;5033246;28;20604;-74
2021/01/26 09:39:31;;;;;;;2.95;1.38;;;15.80;51.70;;;;;;5033824;28;20029;-74
2021/01/26 09:42:17;;;;;;;3.17;1.42;;;15.80;51.70;;;;;;5033920;28;20032;-73
2021/01/26 09:44:56;;;;;;;4.90;2.00;;;15.70;51.50;;;;;;5033553;28;20409;-73
2021/01/26 09:47:21;;;;;;;4.15;1.65;;;15.70;51.60;;;;;;5033615;28;20839;-76
2021/01/26 09:49:47;;;;;;;3.38;1.55;;;15.70;51.50;;;;;;5033316;28;20033;-76
2021/01/26 09:52:17;;;;;;;5.28;1.83;;;15.70;51.50;;;;;;5033667;28;20426;-74
2021/01/26 09:54:43;;;;;;;3.40;1.50;;;15.70;51.20;;;;;;5031604;28;20034;-75
2021/01/26 09:57:14;;;;;;;4.13;1.85;;;15.60;51.40;;;;;;5033713;28;20037;-74
2021/01/26 09:59:42;;;;;;;4.63;1.48;;;15.60;51.60;;;;;;5032636;28;20473;-73
2021/01/26 10:02:12;;;;;;;5.47;1.90;;;15.50;51.40;;;;;;5033457;28;20017;-73
2021/01/26 10:04:40;;;;;;;3.78;2.05;;;15.50;51.40;;;;;;5033104;28;20049;-72
2021/01/26 10:07:09;;;;;;;4.25;1.70;;;15.50;51.40;;;;;;5033308;28;20017;-71
2021/01/26 10:09:37;;;;;;;4.15;1.75;;;15.40;52.00;;;;;;5032851;28;20041;-72
2021/01/26 10:12:18;;;;;;;4.32;1.92;;;15.40;51.40;;;;;;5033247;28;20040;-72
2021/01/26 10:15:13;;;;;;;4.63;2.20;;;15.30;51.40;;;;;;5033015;28;20083;-74
2021/01/26 10:18:03;;;;;;;5.75;1.80;;;15.30;51.50;;;;;;5032672;28;20525;-73
2021/01/26 10:20:47;;;;;;;5.47;2.00;;;15.30;51.50;;;;;;5032877;28;20041;-73
2021/01/26 10:23:42;;;;;;;3.75;1.58;;;15.30;51.50;;;;;;5032948;28;20022;-79
2021/01/26 10:26:24;;;;;;;3.53;1.58;;;15.20;51.40;;;;;;5031472;28;20065;-78
2021/01/26 10:28:58;;;;;;;4.38;1.90;;;15.20;51.40;;;;;;5032518;28;20017;-72
2021/01/26 10:31:24;;;;;;;3.97;2.05;;;15.10;51.30;;;;;;5032522;28;20041;-72
2021/01/26 10:33:50;;;;;;;4.93;1.65;;;15.10;51.30;;;;;;5032372;28;20126;-72
2021/01/26 10:36:27;;;;;;;7.03;1.92;;;15.10;51.30;;;;;;5032547;28;20126;-72
2021/01/26 10:38:54;;;;;;;5.28;1.77;;;15.10;51.40;;;;;;5030296;28;20124;-73
2021/01/26 10:41:36;;;;;;;4.25;2.28;;;15.10;51.50;;;;;;5032686;28;20087;-73
2021/01/26 10:44:07;;;;;;;4.47;1.80;;;15.10;51.90;;;;;;5031913;28;20076;-73
2021/01/26 10:46:37;;;;;;;3.83;1.63;;;15.10;51.40;;;;;;5033980;28;20026;-73
2021/01/26 10:49:16;;;;;;;3.22;1.70;;;15.10;52.00;;;;;;5032049;28;20029;-74
2021/01/26 10:51:44;;;;;;;4.10;2.00;;;15.20;51.40;;;;;;5031973;28;20026;-73
2021/01/26 10:54:10;;;;;;;3.90;1.80;;;15.30;51.20;;;;;;5031478;28;20517;-74
2021/01/26 10:56:36;;;;;;;6.80;1.85;;;15.40;51.10;;;;;;5051519;28;20046;-73
2021/01/26 10:59:02;;;;;;;2.83;1.60;;;15.50;50.90;;;;;;5036613;28;20122;-74
2021/01/26 11:01:28;;;;;;;4.82;1.80;;;15.60;50.80;;;;;;5033197;28;20104;-72
2021/01/26 11:03:54;;;;;;;3.00;1.27;;;15.80;50.70;;;;;;5031719;28;20028;-72
2021/01/26 11:06:22;;;;;;;4.32;1.70;;;15.90;50.60;;;;;;5031863;28;20033;-72
2021/01/26 11:08:48;;;;;;;3.17;1.38;;;16.00;50.40;;;;;;5030432;28;20025;-72
2021/01/26 11:11:16;;;;;;;3.97;2.05;;;16.20;50.30;;;;;;5032100;28;20033;-71
2021/01/26 11:13:42;;;;;;;2.60;1.67;;;16.30;50.20;;;;;;5030848;28;20037;-73
2021/01/26 11:16:07;;;;;;;4.15;1.27;;;16.40;50.10;;;;;;5031014;28;20041;-73
2021/01/26 11:18:33;;;;;;;3.35;1.75;;;16.60;50.00;;;;;;5030676;28;20026;-73
2021/01/26 11:21:00;;;;;;;4.53;2.08;;;16.70;49.70;;;;;;5031371;28;20562;-74
2021/01/26 11:23:25;;;;;;;3.00;1.60;;;16.90;50.00;;;;;;5030080;28;20408;-73
2021/01/26 11:25:51;;;;;;;8.18;1.55;;;17.10;49.00;;;;;;5042887;28;20029;-73
2021/01/26 11:28:17;;;;;;;4.40;1.80;;;17.40;48.70;;;;;;5044167;28;20025;-73
2021/01/26 11:30:43;;;;;;;7.70;1.65;;;17.70;48.50;;;;;;5030951;28;20045;-72
2021/01/26 11:33:09;;;;;;;4.57;1.40;;;18.00;48.10;;;;;;5042613;28;20374;-73
2021/01/26 11:35:35;;;;;;;4.78;1.70;;;18.20;47.70;;;;;;5031478;28;20022;-73
2021/01/26 11:38:02;;;;;;;5.40;1.60;;;18.60;47.20;;;;;;5031344;28;20030;-73
2021/01/26 11:40:28;;;;;;;4.10;1.80;;;19.10;47.10;;;;;;5031919;28;20481;-73
2021/01/26 11:42:54;;;;;;;5.40;1.58;;;19.60;46.10;;;;;;5030167;28;20025;-72
2021/01/26 11:45:27;;;;;;;4.93;1.63;;;20.10;44.60;;;;;;5030850;28;20026;-73
2021/01/26 11:47:52;;;;;;;4.00;1.70;;;20.70;43.60;;;;;;5031351;28;20432;-73
2021/01/26 11:50:19;;;;;;;1.98;1.10;;;22.80;40.70;;;;;;5030940;28;20041;-72
2021/01/26 11:52:45;;;;;;;6.55;1.25;;;22.40;40.30;;;;;;5030864;28;20022;-73
2021/01/26 11:55:15;;;;;;;3.58;1.35;;;21.40;41.90;;;;;;5036727;28;20031;-73
2021/01/26 11:57:42;;;;;;;3.70;1.30;;;20.70;43.50;;;;;;5050722;28;20025;-72
2021/01/26 12:00:09;;;;;;;3.10;1.10;;;20.30;44.70;;;;;;5051258;28;20029;-74
2021/01/26 12:02:35;;;;;;;4.38;1.20;;;20.00;45.20;;;;;;5033963;28;20448;-73
2021/01/26 12:05:02;;;;;;;4.05;1.70;;;19.80;45.90;;;;;;5050089;28;20033;-72
2021/01/26 12:07:28;;;;;;;4.32;1.02;;;19.70;45.70;;;;;;5049472;28;20413;-73
2021/01/26 12:09:53;;;;;;;3.85;1.50;;;19.60;46.00;;;;;;5030264;28;20041;-73
2021/01/26 12:12:19;;;;;;;3.30;1.23;;;19.60;46.30;;;;;;5030664;28;20033;-73
2021/01/26 12:14:44;;;;;;;3.08;1.17;;;19.60;46.50;;;;;;5030069;28;20061;-73
2021/01/26 12:17:10;;;;;;;4.43;1.00;;;19.60;46.60;;;;;;5038449;28;20070;-72
2021/01/26 12:19:36;;;;;;;4.68;1.30;;;19.60;47.00;;;;;;5050767;28;20040;-73
2021/01/26 12:22:01;;;;;;;3.38;1.10;;;19.50;46.50;;;;;;5039454;28;20029;-74
2021/01/26 12:24:27;;;;;;;3.40;0.90;;;19.40;47.00;;;;;;5035004;28;20101;-73
2021/01/26 12:26:54;;;;;;;6.00;1.15;;;19.40;47.30;;;;;;5049320;28;20021;-73
2021/01/26 12:29:20;;;;;;;2.83;1.30;;;19.40;47.50;;;;;;5034759;28;20559;-73
2021/01/26 12:31:46;;;;;;;2.78;1.30;;;19.50;47.70;;;;;;5034621;28;20033;-73
2021/01/26 12:34:12;;;;;;;2.97;1.27;;;19.50;47.60;;;;;;5034912;28;20112;-73
2021/01/26 12:36:37;;;;;;;4.30;1.20;;;19.50;47.80;;;;;;5034630;28;20025;-73
2021/01/26 12:39:04;;;;;;;4.20;1.50;;;19.40;48.10;;;;;;5033069;28;20033;-73
2021/01/26 12:41:30;;;;;;;4.65;1.80;;;19.40;48.30;;;;;;5033770;28;20444;-73
2021/01/26 12:43:55;;;;;;;2.72;1.33;;;19.30;48.50;;;;;;5034128;28;20029;-73
2021/01/26 12:46:21;;;;;;;5.50;1.70;;;19.30;48.70;;;;;;5034805;28;20437;-73
2021/01/26 12:48:46;;;;;;;3.83;1.35;;;19.20;48.80;;;;;;5034159;28;20108;-73
2021/01/26 12:51:12;;;;;;;3.38;1.33;;;19.20;48.80;;;;;;5034160;28;20099;-73
2021/01/26 12:53:38;;;;;;;3.53;1.00;;;19.20;49.00;;;;;;5033861;28;20029;-72
2021/01/26 12:56:03;;;;;;;4.22;1.60;;;19.20;49.00;;;;;;5033744;28;20025;-73
2021/01/26 12:58:29;;;;;;;2.53;1.05;;;19.10;49.20;;;;;;5033937;28;20049;-72
2021/01/26 13:00:55;;;;;;;5.15;1.60;;;19.10;49.40;;;;;;5033138;28;20078;-72
2021/01/26 13:03:20;;;;;;;4.68;1.45;;;19.00;49.80;;;;;;5034460;28;20041;-72
2021/01/26 13:05:47;;;;;;;5.20;1.50;;;19.00;50.00;;;;;;5034060;28;20025;-72
2021/01/26 13:08:12;;;;;;;3.97;1.10;;;19.00;50.30;;;;;;5034054;28;20061;-72
2021/01/26 13:10:39;;;;;;;7.90;1.75;;;18.90;50.50;;;;;;5033630;28;20079;-73
2021/01/26 13:13:05;;;;;;;2.55;1.10;;;18.90;49.90;;;;;;5033885;28;20068;-73
2021/01/26 13:15:30;;;;;;;3.80;1.23;;;18.80;50.10;;;;;;5034172;28;20057;-72
2021/01/26 13:17:56;;;;;;;2.95;1.10;;;18.70;50.20;;;;;;5033695;28;20044;-72